Time;durP1;ratioP1;P1;durP2;ratioP2;P2;SDS_P1;SDS_P2;PMS_P1;PMS_P2;Temp;Humidity;BMP_temperature;BMP_pressure;BME280_temperature;BME280_humidity;BME280_pressure;Samples;Min_cycle;Max_cycle;Signal;HPM_P1;HPM_P2
2023/09/17 00:01:12;;;;;;;9.67;3.00;;;19.70;99.90;;;;;;5017250;28;20091;-73
2023/09/17 00:03:38;;;;;;;8.48;3.28;;;19.70;99.90;;;;;;5021391;28;20033;-73
2023/09/17 00:06:04;;;;;;;7.87;3.43;;;19.70;99.90;;;;;;5016919;28;20060;-80
2023/09/17 00:08:30;;;;;;;13.30;3.65;;;19.80;99.90;;;;;;5018074;28;20405;-76
2023/09/17 00:10:55;;;;;;;9.77;3.67;;;19.70;99.90;;;;;;5015306;28;20050;-75
2023/09/17 00:13:21;;;;;;;6.28;3.10;;;19.70;99.90;;;;;;5017713;28;20036;-75
2023/09/17 00:15:48;;;;;;;11.65;3.75;;;19.80;99.90;;;;;;5015632;28;20095;-74
2023/09/17 00:18:13;;;;;;;12.85;4.72;;;19.70;99.90;;;;;;5016261;28;20478;-74
2023/09/17 00:20:39;;;;;;;10.50;3.57;;;19.70;99.90;;;;;;5012855;28;20309;-74
2023/09/17 00:23:04;;;;;;;11.03;3.97;;;19.70;99.90;;;;;;5013912;28;20277;-74
2023/09/17 00:25:30;;;;;;;5.07;3.53;;;19.70;99.90;;;;;;5009805;28;20038;-75
2023/09/17 00:27:56;;;;;;;9.63;3.17;;;19.70;99.90;;;;;;5020352;28;20489;-74
2023/09/17 00:30:21;;;;;;;8.13;3.03;;;19.80;99.90;;;;;;5023918;28;20304;-72
2023/09/17 00:32:47;;;;;;;9.37;3.20;;;19.70;99.90;;;;;;5018197;28;20390;-72
2023/09/17 00:35:13;;;;;;;9.75;2.88;;;19.70;99.90;;;;;;5007954;28;20736;-74
2023/09/17 00:37:40;;;;;;;6.30;3.10;;;19.80;99.90;;;;;;5016209;28;20030;-74
2023/09/17 00:40:07;;;;;;;5.25;3.10;;;19.80;99.90;;;;;;5017605;28;20120;-75
2023/09/17 00:42:33;;;;;;;11.02;3.58;;;19.70;99.90;;;;;;5019158;28;20065;-73
2023/09/17 00:44:58;;;;;;;9.98;3.05;;;19.90;99.90;;;;;;5016626;28;20489;-73
2023/09/17 00:47:24;;;;;;;10.53;3.33;;;19.80;99.90;;;;;;5015103;28;20605;-73
2023/09/17 00:49:50;;;;;;;5.50;2.93;;;19.80;99.90;;;;;;5020318;28;20033;-73
2023/09/17 00:52:20;;;;;;;7.90;3.85;;;19.80;99.90;;;;;;5019923;28;20091;-73
2023/09/17 00:54:47;;;;;;;9.77;3.38;;;19.70;99.90;;;;;;5017811;28;20040;-74
2023/09/17 00:57:15;;;;;;;6.43;3.42;;;19.70;99.90;;;;;;5012270;28;20030;-73
2023/09/17 00:59:41;;;;;;;7.25;3.40;;;19.70;99.90;;;;;;5017278;28;20948;-73
2023/09/17 01:02:07;;;;;;;9.45;3.40;;;19.60;99.90;;;;;;5026124;28;20029;-72
2023/09/17 01:04:33;;;;;;;14.32;3.38;;;19.60;99.90;;;;;;5019881;28;20037;-72
2023/09/17 01:06:59;;;;;;;4.53;3.10;;;19.60;99.90;;;;;;5006643;28;20030;-73
2023/09/17 01:09:28;;;;;;;;;;;19.60;99.90;;;;;;5014444;28;20300;-72
2023/09/17 01:11:54;;;;;;;4.88;2.85;;;19.60;99.90;;;;;;5019827;28;20333;-75
2023/09/17 01:14:20;;;;;;;9.13;3.78;;;19.70;99.90;;;;;;5020897;28;20095;-75
2023/09/17 01:16:47;;;;;;;7.32;3.17;;;19.60;99.90;;;;;;5020760;28;20061;-75
2023/09/17 01:19:20;;;;;;;11.05;3.35;;;19.60;99.90;;;;;;5016112;28;20478;-75
2023/09/17 01:22:02;;;;;;;9.50;3.47;;;19.60;99.90;;;;;;5015284;28;20049;-75
2023/09/17 01:24:40;;;;;;;6.85;3.35;;;19.60;99.90;;;;;;5009842;28;20062;-76
2023/09/17 01:27:07;;;;;;;9.02;4.28;;;19.60;99.90;;;;;;5015617;28;20120;-76
2023/09/17 01:29:38;;;;;;;16.08;3.60;;;19.70;99.90;;;;;;5014736;28;20033;-76
2023/09/17 01:32:05;;;;;;;6.45;3.13;;;19.60;99.90;;;;;;5021692;28;20030;-76
2023/09/17 01:34:37;;;;;;;8.20;3.60;;;19.60;99.90;;;;;;5013693;28;20045;-76
2023/09/17 01:37:08;;;;;;;11.55;2.92;;;19.60;99.90;;;;;;5014475;28;20120;-76
2023/09/17 01:39:42;;;;;;;5.18;3.03;;;19.60;99.90;;;;;;5017605;28;20489;-74
2023/09/17 01:42:10;;;;;;;9.15;3.50;;;19.60;99.90;;;;;;5010855;28;20030;-74
2023/09/17 01:44:37;;;;;;;7.68;3.08;;;19.60;99.90;;;;;;5015688;28;20026;-75
2023/09/17 01:47:04;;;;;;;8.80;3.30;;;19.50;99.90;;;;;;5016701;28;20438;-75
2023/09/17 01:49:32;;;;;;;7.88;3.45;;;19.60;99.90;;;;;;5020770;28;20108;-74
2023/09/17 01:51:58;;;;;;;9.57;3.60;;;19.60;99.90;;;;;;5021348;28;20136;-74
2023/09/17 01:54:24;;;;;;;8.55;3.35;;;19.60;99.90;;;;;;5022547;28;20034;-74
2023/09/17 01:56:50;;;;;;;11.40;3.25;;;19.50;99.90;;;;;;5020685;28;20037;-77
2023/09/17 01:59:15;;;;;;;17.30;3.75;;;19.60;99.90;;;;;;5019578;28;20688;-73
2023/09/17 02:01:42;;;;;;;11.55;3.72;;;19.60;99.90;;;;;;5025672;28;20052;-73
2023/09/17 02:04:07;;;;;;;;;;;19.60;99.90;;;;;;5022005;28;20079;-74
2023/09/17 02:06:34;;;;;;;10.95;3.20;;;19.60;99.90;;;;;;5019248;28;19910;-74
2023/09/17 02:09:00;;;;;;;13.60;3.33;;;19.60;99.90;;;;;;5018716;28;20029;-74
2023/09/17 02:11:26;;;;;;;8.05;3.15;;;19.60;99.90;;;;;;5023077;28;20034;-74
2023/09/17 02:13:51;;;;;;;12.83;3.30;;;19.50;99.90;;;;;;5021972;28;20029;-74
2023/09/17 02:16:17;;;;;;;6.13;3.33;;;19.50;99.90;;;;;;5018269;28;20128;-74
2023/09/17 02:18:43;;;;;;;10.57;3.17;;;19.40;99.90;;;;;;5022767;28;20025;-73
2023/09/17 02:21:08;;;;;;;7.97;3.73;;;19.40;99.90;;;;;;5018215;28;20072;-73
2023/09/17 02:23:34;;;;;;;6.97;3.40;;;19.40;99.90;;;;;;5018228;28;20471;-77
2023/09/17 02:26:00;;;;;;;5.18;3.03;;;19.30;99.90;;;;;;5018761;28;20044;-74
2023/09/17 02:28:26;;;;;;;12.00;3.17;;;19.30;99.90;;;;;;5019998;28;20041;-75
2023/09/17 02:30:51;;;;;;;6.10;3.03;;;19.40;99.90;;;;;;5018382;28;20513;-77
2023/09/17 02:33:17;;;;;;;12.53;3.30;;;19.30;99.90;;;;;;5020564;28;20030;-73
2023/09/17 02:35:43;;;;;;;9.55;3.15;;;19.20;99.90;;;;;;5017421;28;20131;-73
2023/09/17 02:38:08;;;;;;;9.10;3.70;;;19.10;99.90;;;;;;5019148;28;20037;-73
2023/09/17 02:40:34;;;;;;;5.60;3.60;;;19.00;99.90;;;;;;5025097;28;20025;-73
2023/09/17 02:43:01;;;;;;;11.00;4.97;;;19.10;99.90;;;;;;5020755;28;20038;-72
2023/09/17 02:45:26;;;;;;;9.85;3.60;;;19.10;99.90;;;;;;5018409;28;20036;-72
2023/09/17 02:47:52;;;;;;;11.70;3.20;;;19.20;99.90;;;;;;5023245;28;20666;-73
2023/09/17 02:50:19;;;;;;;13.47;3.97;;;19.10;99.90;;;;;;5013078;28;20165;-72
2023/09/17 02:52:45;;;;;;;8.25;3.72;;;19.10;99.90;;;;;;5020769;28;20026;-73
2023/09/17 02:55:10;;;;;;;8.03;3.83;;;19.10;99.90;;;;;;5020626;28;20078;-72
2023/09/17 02:57:36;;;;;;;8.10;3.73;;;19.10;99.90;;;;;;5022848;28;20140;-74
2023/09/17 03:00:04;;;;;;;7.70;3.70;;;19.00;99.90;;;;;;5018894;28;20052;-72
2023/09/17 03:02:30;;;;;;;7.53;3.25;;;18.90;99.90;;;;;;5013509;28;20034;-72
2023/09/17 03:04:58;;;;;;;14.87;4.57;;;18.80;99.90;;;;;;5013380;28;20033;-74
2023/09/17 03:07:24;;;;;;;8.57;3.92;;;18.90;99.90;;;;;;5022633;28;20280;-74
2023/09/17 03:09:50;;;;;;;10.85;3.95;;;19.00;99.90;;;;;;5017116;28;20060;-74
2023/09/17 03:12:15;;;;;;;10.83;3.87;;;18.90;99.90;;;;;;5018857;28;20409;-82
2023/09/17 03:14:41;;;;;;;17.27;4.30;;;18.90;99.90;;;;;;5017128;28;20076;-83
2023/09/17 03:17:06;;;;;;;8.23;3.43;;;19.00;99.90;;;;;;5022865;28;20117;-83
2023/09/17 03:19:32;;;;;;;10.20;3.30;;;18.90;99.90;;;;;;5020428;28;20028;-83
2023/09/17 03:21:58;;;;;;;9.33;3.70;;;18.90;99.90;;;;;;5020330;28;20060;-79
2023/09/17 03:24:23;;;;;;;10.77;4.07;;;19.00;99.90;;;;;;5019477;28;20026;-79
2023/09/17 03:26:49;;;;;;;9.10;3.43;;;19.00;99.90;;;;;;5020458;28;20605;-80
2023/09/17 03:29:15;;;;;;;9.00;3.55;;;19.00;99.90;;;;;;5022404;28;20123;-80
2023/09/17 03:31:41;;;;;;;11.70;4.00;;;19.00;99.90;;;;;;5027156;28;20073;-83
2023/09/17 03:34:07;;;;;;;9.55;3.58;;;19.00;99.90;;;;;;5017712;28;20030;-78
2023/09/17 03:36:36;;;;;;;8.10;3.60;;;19.00;99.90;;;;;;5020359;28;20037;-83
2023/09/17 03:39:05;;;;;;;6.22;4.05;;;19.00;99.90;;;;;;5023210;28;20505;-83
2023/09/17 03:41:31;;;;;;;8.35;3.75;;;19.10;99.90;;;;;;5020960;28;20022;-79
2023/09/17 03:43:57;;;;;;;11.60;3.63;;;19.10;99.90;;;;;;5022842;28;20037;-80
2023/09/17 03:46:22;;;;;;;4.60;3.13;;;19.10;99.90;;;;;;5019527;28;20030;-81
2023/09/17 03:48:48;;;;;;;17.83;4.33;;;19.20;99.90;;;;;;5022558;28;20029;-83
2023/09/17 03:51:14;;;;;;;16.40;5.77;;;19.30;99.90;;;;;;5021719;28;20509;-79
2023/09/17 03:53:40;;;;;;;6.32;3.50;;;19.30;99.90;;;;;;5022847;28;20093;-79
2023/09/17 03:56:05;;;;;;;12.50;3.58;;;19.40;99.90;;;;;;5014793;28;20048;-80
2023/09/17 03:58:31;;;;;;;12.43;3.90;;;19.40;99.90;;;;;;5019651;28;20034;-80
2023/09/17 04:00:57;;;;;;;7.20;4.13;;;19.40;99.90;;;;;;5025403;28;20057;-81
2023/09/17 04:03:22;;;;;;;12.57;4.00;;;19.40;99.90;;;;;;5015903;28;20276;-80
2023/09/17 04:05:50;;;;;;;13.13;4.27;;;19.30;99.90;;;;;;5023871;28;20113;-81
2023/09/17 04:08:16;;;;;;;8.32;3.78;;;19.40;99.90;;;;;;5013602;28;20373;-82
2023/09/17 04:10:43;;;;;;;6.47;3.47;;;19.40;99.90;;;;;;5021732;28;20036;-78
2023/09/17 04:13:09;;;;;;;10.77;4.10;;;19.40;99.90;;;;;;5015306;28;20037;-80
2023/09/17 04:15:36;;;;;;;6.60;4.00;;;19.30;99.90;;;;;;5019273;28;20033;-79
2023/09/17 04:18:04;;;;;;;9.98;3.63;;;19.20;99.90;;;;;;5021396;28;20548;-79
2023/09/17 04:20:30;;;;;;;14.45;3.90;;;19.20;99.90;;;;;;5018726;28;20033;-79
2023/09/17 04:22:55;;;;;;;8.93;3.90;;;19.30;99.90;;;;;;5017348;28;20045;-78
2023/09/17 04:25:21;;;;;;;8.77;4.13;;;19.30;99.90;;;;;;5025670;28;20087;-78
2023/09/17 04:27:47;;;;;;;6.68;2.97;;;19.30;99.90;;;;;;5017775;28;20056;-78
2023/09/17 04:30:15;;;;;;;8.88;3.47;;;19.30;99.90;;;;;;5018110;28;20044;-81
2023/09/17 04:32:42;;;;;;;11.88;4.20;;;19.30;99.90;;;;;;5018368;28;20026;-81
2023/09/17 04:35:08;;;;;;;14.95;4.15;;;19.30;99.90;;;;;;5012204;28;20096;-78
2023/09/17 04:37:35;;;;;;;8.10;3.83;;;19.20;99.90;;;;;;5016105;28;20552;-78
2023/09/17 04:40:02;;;;;;;6.65;3.42;;;19.30;99.90;;;;;;5014248;28;20128;-78
2023/09/17 04:42:28;;;;;;;;;;;19.30;99.90;;;;;;5014591;28;20679;-79
2023/09/17 04:44:54;;;;;;;6.80;3.90;;;19.30;99.90;;;;;;5023073;28;19931;-80
2023/09/17 04:47:19;;;;;;;14.33;3.87;;;19.20;99.90;;;;;;5023450;28;20501;-79
2023/09/17 04:49:45;;;;;;;9.23;4.07;;;19.20;99.90;;;;;;5016098;28;20045;-80
2023/09/17 04:52:10;;;;;;;9.97;4.37;;;19.20;99.90;;;;;;5013936;28;20052;-78
2023/09/17 04:54:38;;;;;;;7.70;4.30;;;19.10;99.90;;;;;;5017543;28;20489;-79
2023/09/17 04:57:04;;;;;;;6.75;4.18;;;19.10;99.90;;;;;;5020668;28;20540;-81
2023/09/17 04:59:30;;;;;;;;;;;19.10;99.90;;;;;;5017260;28;20484;-82
2023/09/17 05:01:55;;;;;;;11.07;4.03;;;19.00;99.90;;;;;;5013062;28;19921;-80
2023/09/17 05:04:24;;;;;;;9.07;4.57;;;19.00;99.90;;;;;;5017007;28;20041;-80
2023/09/17 05:06:50;;;;;;;8.27;4.25;;;19.00;99.90;;;;;;5016467;28;20068;-79
2023/09/17 05:09:16;;;;;;;11.00;4.25;;;19.10;99.90;;;;;;5016789;28;20026;-77
2023/09/17 05:11:41;;;;;;;10.07;4.40;;;19.00;99.90;;;;;;5020112;28;20056;-78
2023/09/17 05:14:08;;;;;;;7.43;4.00;;;19.00;99.90;;;;;;5021678;28;20072;-81
2023/09/17 05:16:35;;;;;;;10.98;4.72;;;18.90;99.90;;;;;;5016815;28;20400;-81
2023/09/17 05:19:01;;;;;;;10.23;4.65;;;18.90;99.90;;;;;;5025215;28;20033;-82
2023/09/17 05:21:27;;;;;;;8.27;4.35;;;18.90;99.90;;;;;;5017240;28;20555;-82
2023/09/17 05:23:52;;;;;;;13.67;4.50;;;18.90;99.90;;;;;;5020556;28;20095;-83
2023/09/17 05:26:18;;;;;;;11.33;4.40;;;19.00;99.90;;;;;;5019224;28;20057;-82
2023/09/17 05:28:44;;;;;;;17.00;4.53;;;18.90;99.90;;;;;;5017865;28;20045;-76
2023/09/17 05:31:10;;;;;;;9.35;4.13;;;18.90;99.90;;;;;;5012795;28;20037;-76
2023/09/17 05:33:42;;;;;;;13.83;4.13;;;18.80;99.90;;;;;;5018022;28;20091;-80
2023/09/17 05:36:13;;;;;;;9.43;3.78;;;18.90;99.90;;;;;;5011491;28;20057;-81
2023/09/17 05:38:39;;;;;;;15.25;4.40;;;18.80;99.90;;;;;;5009493;28;20037;-81
2023/09/17 05:41:05;;;;;;;11.47;4.20;;;18.70;99.90;;;;;;5016438;28;20037;-81
2023/09/17 05:43:34;;;;;;;;;;;18.80;99.90;;;;;;5018475;28;20026;-78
2023/09/17 05:46:00;;;;;;;16.10;4.13;;;18.80;99.90;;;;;;5018185;28;19913;-75
2023/09/17 05:48:25;;;;;;;15.17;4.20;;;18.60;99.90;;;;;;5022805;28;20124;-70
2023/09/17 05:50:54;;;;;;;10.93;3.97;;;18.70;99.90;;;;;;5021433;28;20044;-77
2023/09/17 05:53:19;;;;;;;14.93;4.22;;;18.80;99.90;;;;;;5018125;28;20030;-76
2023/09/17 05:55:45;;;;;;;8.50;5.00;;;18.80;99.90;;;;;;5019057;28;20060;-73
2023/09/17 05:58:10;;;;;;;8.33;3.70;;;18.90;99.90;;;;;;5021964;28;20038;-73
2023/09/17 06:00:36;;;;;;;10.20;2.80;;;18.90;99.90;;;;;;5022057;28;20032;-73
2023/09/17 06:03:03;;;;;;;9.53;3.33;;;18.90;99.90;;;;;;5015623;28;20498;-73
2023/09/17 06:05:28;;;;;;;;;;;18.90;99.90;;;;;;5019397;28;20113;-73
2023/09/17 06:07:54;;;;;;;9.50;3.22;;;19.00;99.90;;;;;;5013756;28;20007;-72
2023/09/17 06:10:23;;;;;;;9.35;3.78;;;18.80;99.90;;;;;;5018832;28;20049;-74
2023/09/17 06:12:50;;;;;;;12.10;3.53;;;18.90;99.90;;;;;;5015833;28;20057;-77
2023/09/17 06:15:15;;;;;;;;;;;19.00;99.90;;;;;;5018494;28;20033;-75
2023/09/17 06:17:41;;;;;;;15.07;3.70;;;19.00;99.90;;;;;;5014084;28;20439;-75
2023/09/17 06:20:08;;;;;;;9.10;3.55;;;18.80;99.90;;;;;;5021570;28;20117;-73
2023/09/17 06:22:34;;;;;;;;;;;18.80;99.90;;;;;;5018113;28;20054;-75
2023/09/17 06:24:59;;;;;;;4.90;3.35;;;18.70;99.90;;;;;;5014195;28;19940;-75
2023/09/17 06:27:25;;;;;;;5.32;3.20;;;18.80;99.90;;;;;;5015984;28;20521;-74
2023/09/17 06:29:51;;;;;;;11.60;3.30;;;19.00;99.90;;;;;;5017114;28;20038;-73
2023/09/17 06:32:17;;;;;;;13.00;3.30;;;19.10;99.90;;;;;;5020178;28;20034;-73
2023/09/17 06:34:42;;;;;;;10.73;3.30;;;19.30;99.90;;;;;;5019044;28;20033;-74
2023/09/17 06:37:08;;;;;;;10.77;4.43;;;19.40;99.90;;;;;;5019491;28;20033;-73
2023/09/17 06:39:35;;;;;;;9.00;3.27;;;19.50;99.90;;;;;;5028116;28;20295;-76
2023/09/17 06:42:00;;;;;;;;;;;19.60;99.90;;;;;;5026533;28;20034;-74
2023/09/17 06:44:26;;;;;;;5.60;3.38;;;19.70;99.90;;;;;;5020613;28;20373;-73
2023/09/17 06:46:52;;;;;;;5.73;2.50;;;19.80;99.90;;;;;;5018508;28;20506;-73
2023/09/17 06:49:18;;;;;;;8.00;3.30;;;19.90;99.90;;;;;;5036406;28;20467;-72
2023/09/17 06:51:44;;;;;;;7.78;2.88;;;20.10;99.90;;;;;;5023602;28;20132;-72
2023/09/17 06:54:09;;;;;;;9.00;3.15;;;20.30;99.90;;;;;;5019642;28;20113;-71
2023/09/17 06:56:35;;;;;;;9.27;4.63;;;20.40;99.90;;;;;;5019546;28;20068;-73
2023/09/17 06:59:02;;;;;;;7.10;3.00;;;20.50;99.90;;;;;;5019900;28;20052;-74
2023/09/17 07:01:28;;;;;;;8.35;3.20;;;20.60;99.90;;;;;;5037121;28;20025;-73
2023/09/17 07:03:54;;;;;;;;;;;20.80;99.90;;;;;;5015821;28;20568;-74
2023/09/17 07:06:21;;;;;;;12.88;4.28;;;20.80;99.90;;;;;;5017338;28;19905;-73
2023/09/17 07:08:46;;;;;;;8.43;3.22;;;20.80;99.90;;;;;;5016928;28;20026;-72
2023/09/17 07:11:12;;;;;;;8.98;3.88;;;20.80;99.90;;;;;;5020779;28;20033;-72
2023/09/17 07:13:39;;;;;;;16.47;4.00;;;20.80;99.90;;;;;;5017901;28;20043;-80
2023/09/17 07:16:05;;;;;;;9.13;3.40;;;20.90;99.90;;;;;;5017533;28;20324;-75
2023/09/17 07:18:31;;;;;;;8.10;3.85;;;21.00;99.90;;;;;;5024678;28;20068;-73
2023/09/17 07:20:57;;;;;;;12.95;3.58;;;21.00;99.90;;;;;;5018427;28;20049;-73
2023/09/17 07:23:23;;;;;;;14.20;3.50;;;21.20;99.90;;;;;;5016974;28;20026;-76
2023/09/17 07:25:50;;;;;;;8.80;3.23;;;21.30;99.90;;;;;;5019350;28;20033;-66
2023/09/17 07:28:16;;;;;;;12.75;3.42;;;21.40;99.90;;;;;;5036479;28;20037;-68
2023/09/17 07:30:41;;;;;;;10.43;4.05;;;21.50;99.40;;;;;;5019761;28;20037;-67
2023/09/17 07:33:07;;;;;;;11.83;3.47;;;21.60;99.90;;;;;;5019432;28;20509;-70
2023/09/17 07:35:33;;;;;;;7.57;3.27;;;21.90;98.60;;;;;;5021620;28;20463;-70
2023/09/17 07:38:01;;;;;;;;;;;22.10;97.80;;;;;;5018551;28;20025;-69
2023/09/17 07:40:27;;;;;;;11.63;3.33;;;22.20;97.10;;;;;;5019408;28;19974;-69
2023/09/17 07:42:53;;;;;;;9.45;3.42;;;22.30;97.80;;;;;;5013774;28;20797;-68
2023/09/17 07:45:18;;;;;;;11.30;4.03;;;22.30;96.90;;;;;;5021642;28;20045;-68
2023/09/17 07:47:44;;;;;;;7.20;3.20;;;22.40;96.00;;;;;;5018049;28;20826;-77
2023/09/17 07:50:11;;;;;;;15.27;3.53;;;22.60;96.60;;;;;;5017902;28;20046;-74
2023/09/17 07:52:37;;;;;;;10.00;3.28;;;22.70;96.40;;;;;;5021658;28;20033;-71
2023/09/17 07:55:04;;;;;;;11.20;4.22;;;22.80;96.60;;;;;;5019540;28;20034;-82
2023/09/17 07:57:31;;;;;;;12.30;4.13;;;22.80;96.10;;;;;;5020005;28;20025;-74
2023/09/17 07:59:56;;;;;;;13.63;4.05;;;23.00;96.10;;;;;;5020328;28;20186;-69
2023/09/17 08:02:22;;;;;;;11.23;4.20;;;23.10;96.10;;;;;;5020614;28;20120;-75
2023/09/17 08:04:47;;;;;;;13.70;4.23;;;23.10;94.80;;;;;;5024205;28;20083;-75
2023/09/17 08:07:13;;;;;;;10.17;3.67;;;23.20;95.40;;;;;;5022216;28;20075;-74
2023/09/17 08:09:40;;;;;;;18.67;5.15;;;23.40;99.90;;;;;;5016913;28;20370;-73
2023/09/17 08:12:06;;;;;;;;;;;23.50;95.40;;;;;;5021508;28;20048;-78
2023/09/17 08:14:34;;;;;;;13.75;4.00;;;23.50;94.90;;;;;;5021159;28;19917;-79
2023/09/17 08:17:02;;;;;;;10.95;3.95;;;23.60;93.70;;;;;;5023874;28;20794;-71
2023/09/17 08:19:28;;;;;;;13.57;3.65;;;23.80;94.20;;;;;;5017002;28;20057;-76
2023/09/17 08:21:54;;;;;;;11.70;3.53;;;24.40;95.70;;;;;;5018979;28;20298;-77
2023/09/17 08:24:25;;;;;;;15.87;3.50;;;24.30;92.70;;;;;;5021746;28;20049;-74
2023/09/17 08:26:52;;;;;;;10.43;3.65;;;24.40;92.60;;;;;;5021909;28;20783;-74
2023/09/17 08:29:20;;;;;;;8.90;3.33;;;24.70;90.40;;;;;;5026218;28;20022;-79
2023/09/17 08:31:47;;;;;;;12.32;3.50;;;25.20;88.90;;;;;;5022095;28;20042;-76
2023/09/17 08:34:16;;;;;;;11.65;3.47;;;25.20;91.40;;;;;;5019122;28;20033;-71
2023/09/17 08:36:44;;;;;;;12.13;3.83;;;25.20;90.00;;;;;;5020086;28;20104;-80
2023/09/17 08:39:11;;;;;;;11.82;3.72;;;25.60;87.20;;;;;;5022767;28;20029;-76
2023/09/17 08:41:38;;;;;;;13.18;3.75;;;26.40;86.00;;;;;;5020698;28;20692;-84
2023/09/17 08:44:05;;;;;;;23.20;3.83;;;26.10;87.10;;;;;;5004790;28;20029;-79
2023/09/17 08:46:32;;;;;;;16.42;4.22;;;26.10;84.60;;;;;;5020800;28;20041;-81
2023/09/17 08:48:58;;;;;;;15.90;4.32;;;27.60;86.20;;;;;;5019790;28;20625;-81
2023/09/17 08:51:26;;;;;;;15.45;3.78;;;28.60;82.00;;;;;;5022824;28;20414;-77
2023/09/17 08:54:13;;;;;;;16.25;4.22;;;29.60;82.40;;;;;;5015188;28;20040;-76
2023/09/17 08:56:42;;;;;;;17.65;3.75;;;28.90;77.90;;;;;;5020150;28;20025;-73
2023/09/17 08:59:24;;;;;;;25.88;5.15;;;29.40;76.10;;;;;;5016099;28;20033;-83
2023/09/17 09:01:51;;;;;;;14.18;3.28;;;28.80;75.40;;;;;;5017461;28;20048;-79
2023/09/17 09:04:18;;;;;;;15.50;3.85;;;28.70;74.70;;;;;;5020341;28;20109;-79
2023/09/17 09:06:46;;;;;;;15.80;4.00;;;29.50;77.70;;;;;;5022216;28;20060;-74
2023/09/17 09:09:12;;;;;;;10.15;3.17;;;30.00;71.80;;;;;;5024886;28;20021;-74
2023/09/17 09:11:37;;;;;;;;;;;30.50;72.10;;;;;;5020192;28;20041;-70
2023/09/17 09:14:04;;;;;;;14.30;3.25;;;30.20;72.30;;;;;;5018742;28;19917;-74
2023/09/17 09:16:32;;;;;;;16.67;3.67;;;30.20;70.20;;;;;;5019285;28;20075;-72
2023/09/17 09:18:59;;;;;;;16.63;4.30;;;30.00;70.30;;;;;;5016588;28;20034;-73
2023/09/17 09:21:25;;;;;;;17.15;2.95;;;30.60;84.30;;;;;;5018738;28;20039;-74
2023/09/17 09:23:51;;;;;;;11.50;3.53;;;30.40;83.10;;;;;;5021412;28;20132;-75
2023/09/17 09:26:16;;;;;;;15.40;4.00;;;30.40;78.10;;;;;;5013311;28;20038;-73
2023/09/17 09:28:42;;;;;;;17.13;5.13;;;30.00;70.20;;;;;;5019311;28;20034;-73
2023/09/17 09:31:08;;;;;;;24.95;6.15;;;30.30;78.80;;;;;;5019547;28;20471;-74
2023/09/17 09:33:35;;;;;;;19.13;4.97;;;30.50;80.30;;;;;;5020450;28;20021;-75
2023/09/17 09:36:01;;;;;;;25.63;4.50;;;30.50;77.80;;;;;;5022866;28;20041;-76
2023/09/17 09:38:28;;;;;;;19.92;3.90;;;30.40;74.60;;;;;;5020657;28;20018;-77
2023/09/17 09:40:54;;;;;;;17.30;3.80;;;30.40;74.90;;;;;;5017001;28;20198;-76
2023/09/17 09:43:32;;;;;;;12.70;4.38;;;30.40;73.10;;;;;;5021378;28;20037;-76
2023/09/17 09:46:04;;;;;;;24.38;4.90;;;30.50;74.40;;;;;;5033237;28;20116;-73
2023/09/17 09:48:39;;;;;;;31.33;4.38;;;30.00;70.20;;;;;;5019884;28;20052;-75
2023/09/17 09:51:05;;;;;;;21.42;4.82;;;29.90;71.50;;;;;;5019593;28;20048;-74
2023/09/17 09:53:30;;;;;;;23.27;4.20;;;29.60;74.20;;;;;;5020995;28;20461;-75
2023/09/17 09:55:56;;;;;;;25.38;5.03;;;28.80;72.80;;;;;;5020214;28;20116;-72
2023/09/17 09:58:23;;;;;;;;;;;28.60;74.40;;;;;;5022826;28;20371;-72
2023/09/17 10:00:49;;;;;;;26.90;4.65;;;28.40;74.80;;;;;;5024238;28;19920;-72
2023/09/17 10:03:17;;;;;;;;;;;27.90;74.80;;;;;;5019306;28;20088;-73
2023/09/17 10:05:44;;;;;;;28.40;4.93;;;28.20;75.60;;;;;;5020513;28;20410;-72
2023/09/17 10:08:17;;;;;;;37.47;5.60;;;28.10;75.20;;;;;;5017256;28;20060;-75
2023/09/17 10:10:43;;;;;;;24.83;4.50;;;28.10;76.20;;;;;;5012406;28;20034;-72
2023/09/17 10:13:10;;;;;;;26.38;4.90;;;28.30;76.00;;;;;;5019125;28;20397;-72
2023/09/17 10:15:37;;;;;;;43.40;5.70;;;28.30;75.50;;;;;;5022956;28;20025;-71
2023/09/17 10:18:09;;;;;;;32.92;4.55;;;28.40;76.90;;;;;;5021260;28;20037;-71
2023/09/17 10:20:35;;;;;;;31.30;6.70;;;28.40;76.00;;;;;;5025088;28;20119;-73
2023/09/17 10:23:02;;;;;;;28.17;5.32;;;28.60;74.70;;;;;;5019608;28;20072;-73
2023/09/17 10:25:30;;;;;;;24.05;4.93;;;28.70;74.40;;;;;;5024170;28;20034;-72
2023/09/17 10:27:57;;;;;;;29.20;4.53;;;28.30;79.20;;;;;;5021261;28;20034;-72
2023/09/17 10:30:24;;;;;;;32.13;4.72;;;28.20;75.30;;;;;;5021632;28;20038;-72
2023/09/17 10:32:51;;;;;;;33.08;4.75;;;28.10;76.50;;;;;;5021861;28;20021;-73
2023/09/17 10:35:17;;;;;;;42.75;5.18;;;28.00;75.60;;;;;;5018979;28;20075;-71
2023/09/17 10:37:43;;;;;;;32.03;5.55;;;28.00;76.20;;;;;;5015267;28;20025;-70
2023/09/17 10:40:10;;;;;;;;;;;28.10;75.50;;;;;;5018479;28;20469;-72
2023/09/17 10:42:39;;;;;;;49.47;6.73;;;28.10;75.40;;;;;;5020583;28;20077;-73
2023/09/17 10:45:10;;;;;;;35.22;5.43;;;28.00;75.70;;;;;;5017282;28;20036;-70
2023/09/17 10:47:39;;;;;;;44.90;6.75;;;28.00;73.00;;;;;;5020284;28;20499;-73
2023/09/17 10:50:06;;;;;;;35.90;6.72;;;28.00;73.70;;;;;;5015692;28;20041;-68
2023/09/17 10:52:32;;;;;;;49.75;6.75;;;28.00;70.50;;;;;;5020792;28;20804;-70
2023/09/17 10:54:58;;;;;;;;;;;28.00;73.20;;;;;;5015671;28;20083;-69
2023/09/17 10:57:43;;;;;;;38.85;6.20;;;27.90;71.80;;;;;;5018568;28;20541;-68
2023/09/17 11:00:14;;;;;;;50.78;8.85;;;27.90;71.60;;;;;;5026269;28;20104;-71
2023/09/17 11:02:55;;;;;;;30.95;5.63;;;27.90;72.50;;;;;;5022017;28;20063;-71
2023/09/17 11:05:24;;;;;;;40.03;5.65;;;28.00;73.10;;;;;;5021919;28;20038;-69
2023/09/17 11:07:53;;;;;;;47.17;5.60;;;27.90;74.70;;;;;;5019586;28;20096;-72
2023/09/17 11:10:19;;;;;;;49.65;7.32;;;27.80;74.20;;;;;;5019850;28;20029;-69
2023/09/17 11:12:47;;;;;;;32.83;5.68;;;27.90;72.10;;;;;;5018831;28;20030;-73
2023/09/17 11:15:13;;;;;;;38.88;5.72;;;27.80;73.70;;;;;;5016914;28;20432;-71
2023/09/17 11:17:40;;;;;;;37.05;6.38;;;27.80;73.70;;;;;;5018819;28;20028;-74
2023/09/17 11:20:12;;;;;;;37.00;5.65;;;27.90;72.00;;;;;;5020672;28;20095;-75
2023/09/17 11:22:39;;;;;;;47.17;6.47;;;28.00;73.10;;;;;;5015836;28;20552;-74
2023/09/17 11:25:07;;;;;;;40.38;5.30;;;28.10;71.50;;;;;;5018589;28;20033;-69
2023/09/17 11:27:49;;;;;;;40.10;5.63;;;28.20;74.40;;;;;;5021462;28;20032;-68
2023/09/17 11:30:16;;;;;;;38.22;5.97;;;28.10;73.10;;;;;;5019288;28;20038;-71
2023/09/17 11:32:51;;;;;;;31.77;5.05;;;28.10;75.70;;;;;;5020926;28;20033;-71
2023/09/17 11:35:20;;;;;;;37.60;5.75;;;28.20;72.20;;;;;;5017693;28;20090;-71
2023/09/17 11:37:46;;;;;;;30.42;5.45;;;28.40;71.60;;;;;;5020539;28;20048;-71
2023/09/17 11:40:12;;;;;;;28.55;5.07;;;28.50;72.10;;;;;;5020289;28;20030;-75
2023/09/17 11:42:40;;;;;;;29.88;4.70;;;28.70;70.20;;;;;;5017967;28;20500;-72
2023/09/17 11:45:07;;;;;;;40.08;4.60;;;28.90;69.50;;;;;;5020420;28;20040;-72
2023/09/17 11:47:34;;;;;;;35.40;5.03;;;28.80;72.10;;;;;;5016955;28;20038;-73
2023/09/17 11:50:00;;;;;;;24.92;4.28;;;28.80;71.10;;;;;;5018943;28;20038;-72
2023/09/17 11:52:27;;;;;;;26.23;4.30;;;28.80;73.10;;;;;;5021222;28;20044;-71
2023/09/17 11:54:58;;;;;;;36.35;4.40;;;28.80;72.00;;;;;;5024197;28;20409;-72
2023/09/17 11:57:25;;;;;;;28.95;4.70;;;28.90;72.10;;;;;;5024887;28;20503;-73
2023/09/17 11:59:50;;;;;;;31.23;4.53;;;29.10;69.50;;;;;;5021618;28;20021;-79
2023/09/17 12:02:18;;;;;;;23.10;4.10;;;29.20;70.30;;;;;;5022057;28;20064;-75
2023/09/17 12:04:44;;;;;;;30.25;5.20;;;29.20;71.60;;;;;;5024129;28;20159;-78
2023/09/17 12:07:14;;;;;;;27.60;4.85;;;29.20;70.20;;;;;;5024998;28;20116;-77
2023/09/17 12:12:11;;;;;;;26.85;4.57;;;29.30;67.70;;;;;;5018104;28;20132;-77
2023/09/17 12:14:37;;;;;;;33.80;4.70;;;29.40;67.70;;;;;;5015612;28;20100;-78
2023/09/17 12:17:04;;;;;;;24.55;4.70;;;29.40;68.10;;;;;;5019109;28;20038;-76
2023/09/17 12:19:30;;;;;;;25.02;4.20;;;29.70;69.10;;;;;;5020473;28;20105;-78
2023/09/17 12:21:59;;;;;;;;;;;29.70;70.30;;;;;;5019289;28;20061;-73
2023/09/17 12:24:44;;;;;;;36.97;4.80;;;29.60;67.20;;;;;;5022465;28;20301;-79
2023/09/17 12:27:25;;;;;;;24.25;5.20;;;29.60;69.70;;;;;;5021441;28;20501;-82
2023/09/17 12:29:54;;;;;;;27.92;4.65;;;29.40;72.10;;;;;;5017313;28;20140;-81
2023/09/17 12:32:25;;;;;;;27.60;3.92;;;29.30;69.60;;;;;;5016248;28;20033;-81
2023/09/17 12:34:52;;;;;;;36.40;6.13;;;29.30;68.60;;;;;;5020606;28;20121;-68
2023/09/17 12:37:20;;;;;;;31.40;5.28;;;29.20;71.00;;;;;;5009549;28;20038;-68
2023/09/17 12:39:46;;;;;;;25.20;5.88;;;29.30;69.40;;;;;;4998714;28;20029;-72
2023/09/17 12:42:12;;;;;;;31.75;3.97;;;29.40;70.00;;;;;;5015017;28;20026;-69
2023/09/17 12:44:39;;;;;;;30.00;4.65;;;29.40;69.50;;;;;;5013408;28;20040;-70
2023/09/17 12:47:05;;;;;;;28.73;5.28;;;29.30;68.90;;;;;;5016785;28;20065;-68